Time,TemperatureF,DewpointF,PressureIn,WindDirection,WindDirectionDegrees,WindSpeedMPH,WindSpeedGustMPH,Humidity,HourlyPrecipIn,Conditions,Clouds,dailyrainin,SoftwareType,DateUTC
2013-01-25 00:03:00,49.5,48.9,30.05,ENE,60,0.0,0.0,98,0.00,,,0.00,meteohub,2013-01-25 08:03:00,
2013-01-25 00:08:00,49.6,49.1,30.05,ENE,60,2.0,0.0,98,0.00,,,0.00,meteohub,2013-01-25 08:08:00,
2013-01-25 00:13:00,49.6,49.1,30.05,ENE,61,2.0,2.0,98,0.00,,,0.00,meteohub,2013-01-25 08:13:00,
2013-01-25 00:18:00,49.6,49.1,30.05,ENE,60,1.0,3.0,98,0.00,,,0.00,meteohub,2013-01-25 08:18:00,
2013-01-25 00:23:00,49.6,49.1,30.05,ENE,60,0.0,3.0,98,0.00,,,0.00,meteohub,2013-01-25 08:23:00,
2013-01-25 00:28:00,49.6,49.1,30.05,ENE,60,0.0,3.0,98,0.00,,,0.00,meteohub,2013-01-25 08:28:00,
2013-01-25 00:33:00,49.6,49.1,30.05,ENE,60,0.0,3.0,98,0.00,,,0.00,meteohub,2013-01-25 08:33:00,
2013-01-25 00:38:00,49.8,49.3,30.05,ENE,60,0.0,0.0,98,0.00,,,0.00,meteohub,2013-01-25 08:38:00,
2013-01-25 00:43:00,49.8,49.3,30.05,ENE,61,0.0,0.0,98,0.00,,,0.00,meteohub,2013-01-25 08:43:00,
2013-01-25 00:48:00,49.8,49.3,30.05,ENE,60,0.0,1.0,98,0.00,,,0.00,meteohub,2013-01-25 08:48:00,
2013-01-25 00:53:00,49.8,49.3,30.06,ENE,60,0.0,1.0,98,0.00,,,0.00,meteohub,2013-01-25 08:53:00,
2013-01-25 00:58:00,49.8,49.3,30.06,ENE,60,0.0,1.0,98,0.00,,,0.00,meteohub,2013-01-25 08:58:00,
2013-01-25 01:03:00,49.8,49.3,30.06,ENE,60,0.0,1.0,98,0.00,,,0.00,meteohub,2013-01-25 09:03:00,
2013-01-25 01:08:00,50.0,49.5,30.06,ENE,60,0.0,0.0,98,0.00,,,0.00,meteohub,2013-01-25 09:08:00,
2013-01-25 01:13:00,50.0,49.5,30.06,ENE,60,0.0,0.0,98,0.00,,,0.00,meteohub,2013-01-25 09:13:00,
2013-01-25 01:18:00,50.0,49.5,30.06,ENE,60,0.0,0.0,98,0.00,,,0.00,meteohub,2013-01-25 09:18:00,
2013-01-25 01:23:00,50.2,49.6,30.06,ENE,60,0.0,0.0,98,0.00,,,0.00,meteohub,2013-01-25 09:23:00,
2013-01-25 01:28:00,50.2,49.6,30.06,ENE,60,0.0,0.0,98,0.00,,,0.00,meteohub,2013-01-25 09:28:00,
2013-01-25 01:33:00,50.0,49.5,30.06,ENE,60,0.0,0.0,98,0.00,,,0.00,meteohub,2013-01-25 09:33:00,
2013-01-25 01:38:00,50.0,49.5,30.06,ENE,60,0.0,0.0,98,0.00,,,0.00,meteohub,2013-01-25 09:38:00,
2013-01-25 01:43:00,50.0,49.5,30.06,ENE,60,0.0,0.0,98,0.00,,,0.00,meteohub,2013-01-25 09:43:00,
2013-01-25 01:49:00,49.8,49.3,30.06,ENE,60,0.0,0.0,98,0.00,,,0.00,meteohub,2013-01-25 09:49:00,
2013-01-25 01:54:00,49.8,49.3,30.06,ENE,60,0.0,0.0,98,0.00,,,0.00,meteohub,2013-01-25 09:54:00,
2013-01-25 01:59:00,49.8,49.3,30.06,ENE,60,0.0,0.0,98,0.00,,,0.00,meteohub,2013-01-25 09:59:00,
2013-01-25 02:04:00,49.6,49.1,30.06,ENE,60,0.0,0.0,98,0.00,,,0.00,meteohub,2013-01-25 10:04:00,
2013-01-25 02:09:00,49.6,49.1,30.05,ENE,60,0.0,0.0,98,0.00,,,0.00,meteohub,2013-01-25 10:09:00,
2013-01-25 02:14:00,49.6,49.1,30.05,ENE,60,0.0,0.0,98,0.00,,,0.00,meteohub,2013-01-25 10:14:00,
2013-01-25 02:19:00,49.5,48.9,30.05,ENE,60,0.0,0.0,98,0.00,,,0.00,meteohub,2013-01-25 10:19:00,
2013-01-25 02:24:00,49.3,48.7,30.05,ENE,60,0.0,0.0,98,0.00,,,0.00,meteohub,2013-01-25 10:24:00,
2013-01-25 02:29:00,49.1,48.6,30.05,ENE,60,0.0,0.0,98,0.00,,,0.00,meteohub,2013-01-25 10:29:00,
2013-01-25 02:34:00,48.9,48.4,30.05,ENE,60,0.0,0.0,98,0.00,,,0.00,meteohub,2013-01-25 10:34:00,
2013-01-25 02:39:00,48.7,48.2,30.04,ENE,60,0.0,0.0,98,0.00,,,0.00,meteohub,2013-01-25 10:39:00,
2013-01-25 02:44:00,48.6,48.0,30.04,ENE,60,0.0,0.0,98,0.00,,,0.00,meteohub,2013-01-25 10:44:00,
2013-01-25 02:49:00,48.4,47.8,30.04,ENE,60,0.0,0.0,98,0.00,,,0.00,meteohub,2013-01-25 10:49:00,
2013-01-25 02:54:00,48.2,47.7,30.04,ENE,60,0.0,0.0,98,0.00,,,0.00,meteohub,2013-01-25 10:54:00,
2013-01-25 02:59:00,48.0,47.5,30.04,ENE,60,0.0,0.0,98,0.00,,,0.00,meteohub,2013-01-25 10:59:00,
2013-01-25 03:04:00,47.8,47.3,30.04,ENE,60,0.0,0.0,98,0.00,,,0.00,meteohub,2013-01-25 11:04:00,
2013-01-25 03:09:00,47.8,47.3,30.05,ENE,60,0.0,0.0,98,0.00,,,0.00,meteohub,2013-01-25 11:09:00,
2013-01-25 03:14:00,47.7,47.1,30.05,ENE,60,0.0,0.0,98,0.00,,,0.00,meteohub,2013-01-25 11:14:00,
2013-01-25 03:19:00,47.3,46.8,30.05,ENE,60,0.0,0.0,98,0.00,,,0.00,meteohub,2013-01-25 11:19:00,
2013-01-25 03:24:00,47.3,46.8,30.04,ENE,60,0.0,0.0,98,0.00,,,0.00,meteohub,2013-01-25 11:24:00,
2013-01-25 03:29:00,47.1,46.6,30.04,ENE,60,0.0,0.0,98,0.00,,,0.00,meteohub,2013-01-25 11:29:00,
2013-01-25 03:34:00,47.1,46.6,30.04,ENE,60,0.0,0.0,98,0.00,,,0.00,meteohub,2013-01-25 11:34:00,
2013-01-25 03:39:00,47.3,46.8,30.04,ENE,60,0.0,0.0,98,0.00,,,0.00,meteohub,2013-01-25 11:39:00,
2013-01-25 03:44:00,47.3,46.8,30.04,ENE,60,0.0,0.0,98,0.00,,,0.00,meteohub,2013-01-25 11:44:00,
2013-01-25 03:49:00,47.5,46.9,30.04,ENE,60,0.0,0.0,98,0.00,,,0.00,meteohub,2013-01-25 11:49:00,
2013-01-25 03:54:00,47.5,46.9,30.04,ENE,60,0.0,0.0,98,0.00,,,0.00,meteohub,2013-01-25 11:54:00,
2013-01-25 03:59:00,47.7,47.1,30.04,ENE,60,0.0,0.0,98,0.00,,,0.00,meteohub,2013-01-25 11:59:00,
2013-01-25 04:04:00,47.7,47.1,30.04,ENE,60,0.0,0.0,98,0.00,,,0.00,meteohub,2013-01-25 12:04:00,
2013-01-25 04:09:00,47.8,47.7,30.04,ENE,60,0.0,0.0,99,0.00,,,0.00,meteohub,2013-01-25 12:09:00,
2013-01-25 04:14:00,48.0,47.8,30.04,ENE,60,0.0,0.0,99,0.00,,,0.00,meteohub,2013-01-25 12:14:00,
2013-01-25 04:19:00,48.0,47.8,30.04,ENE,60,0.0,0.0,99,0.00,,,0.00,meteohub,2013-01-25 12:19:00,
2013-01-25 04:24:00,48.2,48.0,30.04,ENE,60,0.0,0.0,99,0.00,,,0.00,meteohub,2013-01-25 12:24:00,
2013-01-25 04:29:00,48.2,48.0,30.04,ENE,60,0.0,0.0,99,0.00,,,0.00,meteohub,2013-01-25 12:29:00,
2013-01-25 04:34:00,48.0,47.8,30.04,ENE,60,0.0,0.0,99,0.00,,,0.00,meteohub,2013-01-25 12:34:00,
2013-01-25 04:40:00,48.2,48.0,30.04,ENE,60,0.0,0.0,99,0.00,,,0.00,meteohub,2013-01-25 12:40:00,
2013-01-25 04:45:00,48.4,48.2,30.04,ENE,60,0.0,0.0,99,0.00,,,0.00,meteohub,2013-01-25 12:45:00,
2013-01-25 04:50:00,48.4,48.2,30.04,ENE,60,0.0,0.0,99,0.00,,,0.00,meteohub,2013-01-25 12:50:00,
2013-01-25 04:55:00,48.6,48.4,30.03,ENE,60,0.0,0.0,99,0.00,,,0.00,meteohub,2013-01-25 12:55:00,
2013-01-25 05:00:00,48.6,48.4,30.03,ENE,60,0.0,0.0,99,0.00,,,0.00,meteohub,2013-01-25 13:00:00,
2013-01-25 05:05:00,48.6,48.4,30.03,ENE,60,0.0,0.0,99,0.00,,,0.00,meteohub,2013-01-25 13:05:00,
2013-01-25 05:10:00,48.6,48.4,30.03,ENE,60,0.0,0.0,99,0.00,,,0.00,meteohub,2013-01-25 13:10:00,
2013-01-25 05:15:00,48.6,48.4,30.03,ENE,60,0.0,0.0,99,0.00,,,0.00,meteohub,2013-01-25 13:15:00,
2013-01-25 05:20:00,48.9,48.7,30.03,ENE,60,0.0,0.0,99,0.00,,,0.00,meteohub,2013-01-25 13:20:00,
2013-01-25 05:25:00,48.9,48.7,30.03,ENE,60,0.0,0.0,99,0.00,,,0.00,meteohub,2013-01-25 13:25:00,
2013-01-25 05:30:00,48.9,48.7,30.03,ENE,60,0.0,0.0,99,0.00,,,0.00,meteohub,2013-01-25 13:30:00,
2013-01-25 05:35:00,48.9,48.7,30.03,ENE,60,0.0,0.0,99,0.00,,,0.00,meteohub,2013-01-25 13:35:00,
2013-01-25 05:40:00,49.1,48.9,30.03,ENE,60,0.0,0.0,99,0.00,,,0.00,meteohub,2013-01-25 13:40:00,
2013-01-25 05:45:00,49.5,49.3,30.03,ENE,60,0.0,0.0,99,0.00,,,0.00,meteohub,2013-01-25 13:45:00,
2013-01-25 05:50:00,49.6,49.5,30.03,ENE,60,0.0,0.0,99,0.00,,,0.00,meteohub,2013-01-25 13:50:00,
2013-01-25 05:55:00,49.5,49.3,30.03,ENE,60,0.0,0.0,99,0.00,,,0.00,meteohub,2013-01-25 13:55:00,
2013-01-25 06:00:00,49.6,49.5,30.03,ENE,60,0.0,0.0,99,0.00,,,0.00,meteohub,2013-01-25 14:00:00,
2013-01-25 06:05:00,49.6,49.5,30.03,ENE,60,0.0,0.0,99,0.00,,,0.00,meteohub,2013-01-25 14:05:00,
2013-01-25 06:10:00,49.6,49.5,30.03,ENE,60,0.0,0.0,99,0.00,,,0.00,meteohub,2013-01-25 14:10:00,
2013-01-25 06:15:00,49.6,49.5,30.03,ENE,60,0.0,0.0,99,0.00,,,0.00,meteohub,2013-01-25 14:15:00,
2013-01-25 06:20:00,49.5,49.3,30.03,ENE,60,0.0,0.0,99,0.00,,,0.00,meteohub,2013-01-25 14:20:00,
2013-01-25 06:25:00,49.5,49.3,30.03,ENE,60,0.0,0.0,99,0.00,,,0.00,meteohub,2013-01-25 14:25:00,
2013-01-25 06:30:00,49.3,49.1,30.03,ENE,60,0.0,0.0,99,0.00,,,0.00,meteohub,2013-01-25 14:30:00,
2013-01-25 06:35:00,49.5,49.3,30.03,ENE,60,0.0,0.0,99,0.00,,,0.00,meteohub,2013-01-25 14:35:00,
2013-01-25 06:40:00,49.3,49.1,30.04,ENE,60,0.0,0.0,99,0.00,,,0.00,meteohub,2013-01-25 14:40:00,
2013-01-25 06:45:00,49.3,49.1,30.04,ENE,60,0.0,0.0,99,0.00,,,0.00,meteohub,2013-01-25 14:45:00,
2013-01-25 06:50:00,49.3,49.1,30.04,ENE,60,0.0,0.0,99,0.00,,,0.00,meteohub,2013-01-25 14:50:00,
2013-01-25 06:55:00,49.3,49.1,30.04,ENE,60,0.0,0.0,99,0.00,,,0.00,meteohub,2013-01-25 14:55:00,
2013-01-25 07:00:00,49.3,49.1,30.04,ENE,60,0.0,1.0,99,0.00,,,0.00,meteohub,2013-01-25 15:00:00,
2013-01-25 07:05:00,49.3,49.1,30.04,ENE,60,0.0,1.0,99,0.00,,,0.00,meteohub,2013-01-25 15:05:00,
2013-01-25 07:10:00,49.3,49.1,30.04,ENE,60,0.0,0.0,99,0.00,,,0.00,meteohub,2013-01-25 15:10:00,
2013-01-25 07:16:00,49.3,49.1,30.04,ENE,60,0.0,0.0,99,0.00,,,0.00,meteohub,2013-01-25 15:16:00,
2013-01-25 07:21:00,49.3,49.1,30.04,ENE,60,0.0,2.0,99,0.00,,,0.00,meteohub,2013-01-25 15:21:00,
2013-01-25 07:26:00,49.3,49.1,30.04,ENE,60,0.0,2.0,99,0.00,,,0.00,meteohub,2013-01-25 15:26:00,
2013-01-25 07:31:00,48.9,48.7,30.04,ENE,60,0.0,2.0,99,0.00,,,0.00,meteohub,2013-01-25 15:31:00,
2013-01-25 07:36:00,48.7,48.2,30.04,ENE,60,0.0,0.0,98,0.00,,,0.00,meteohub,2013-01-25 15:36:00,
2013-01-25 07:41:00,48.7,48.2,30.04,ENE,60,0.0,0.0,98,0.00,,,0.00,meteohub,2013-01-25 15:41:00,
2013-01-25 07:46:00,48.7,48.6,30.04,ENE,60,0.0,0.0,99,0.00,,,0.00,meteohub,2013-01-25 15:46:00,
2013-01-25 07:51:00,48.7,48.6,30.04,ENE,60,0.0,0.0,99,0.00,,,0.00,meteohub,2013-01-25 15:51:00,
2013-01-25 07:56:00,48.7,48.6,30.04,ENE,60,0.0,0.0,99,0.00,,,0.00,meteohub,2013-01-25 15:56:00,
2013-01-25 08:01:00,48.7,48.6,30.04,ENE,60,0.0,0.0,99,0.00,,,0.00,meteohub,2013-01-25 16:01:00,
2013-01-25 08:06:00,48.9,48.7,30.04,ENE,60,0.0,0.0,99,0.00,,,0.00,meteohub,2013-01-25 16:06:00,
2013-01-25 08:11:00,49.3,49.1,30.03,ENE,60,0.0,0.0,99,0.00,,,0.00,meteohub,2013-01-25 16:11:00,
2013-01-25 08:16:00,49.3,49.1,30.03,ENE,60,0.0,0.0,99,0.00,,,0.00,meteohub,2013-01-25 16:16:00,
2013-01-25 08:21:00,49.3,49.1,30.03,ENE,60,0.0,0.0,99,0.00,,,0.00,meteohub,2013-01-25 16:21:00,
2013-01-25 08:26:00,49.3,49.1,30.02,ENE,60,0.0,0.0,99,0.00,,,0.00,meteohub,2013-01-25 16:26:00,
2013-01-25 08:31:00,49.1,48.9,30.02,ENE,60,0.0,0.0,99,0.00,,,0.00,meteohub,2013-01-25 16:31:00,
2013-01-25 08:36:00,48.9,48.7,30.02,ENE,60,0.0,0.0,99,0.00,,,0.00,meteohub,2013-01-25 16:36:00,
2013-01-25 08:41:00,48.9,48.7,30.02,ENE,60,0.0,0.0,99,0.00,,,0.00,meteohub,2013-01-25 16:41:00,
2013-01-25 08:46:00,48.9,48.7,30.02,ENE,60,0.0,0.0,99,0.00,,,0.00,meteohub,2013-01-25 16:46:00,
2013-01-25 08:51:00,49.1,48.9,30.02,ENE,60,0.0,0.0,99,0.00,,,0.00,meteohub,2013-01-25 16:51:00,
2013-01-25 08:56:00,49.6,49.5,30.03,ENE,60,0.0,0.0,99,0.00,,,0.00,meteohub,2013-01-25 16:56:00,
2013-01-25 09:01:00,50.2,49.8,30.03,ENE,60,0.0,0.0,99,0.00,,,0.00,meteohub,2013-01-25 17:01:00,
2013-01-25 09:06:00,50.7,50.4,30.03,ENE,60,0.0,0.0,99,0.00,,,0.00,meteohub,2013-01-25 17:06:00,
2013-01-25 09:11:00,51.3,50.9,30.02,ENE,60,0.0,0.0,99,0.00,,,0.00,meteohub,2013-01-25 17:11:00,
2013-01-25 09:16:00,51.4,51.1,30.02,ENE,61,0.0,0.0,99,0.00,,,0.00,meteohub,2013-01-25 17:16:00,
2013-01-25 09:21:00,51.3,50.9,30.02,ENE,60,0.0,0.0,99,0.00,,,0.00,meteohub,2013-01-25 17:21:00,
2013-01-25 09:26:00,51.3,50.9,30.03,ENE,60,0.0,3.0,99,0.00,,,0.00,meteohub,2013-01-25 17:26:00,
2013-01-25 09:31:00,51.3,50.9,30.03,ENE,60,0.0,3.0,99,0.00,,,0.00,meteohub,2013-01-25 17:31:00,
2013-01-25 09:36:00,51.3,50.9,30.03,ENE,60,0.0,2.0,99,0.00,,,0.00,meteohub,2013-01-25 17:36:00,
2013-01-25 09:41:00,51.3,50.9,30.04,ENE,60,0.0,2.0,99,0.00,,,0.00,meteohub,2013-01-25 17:41:00,
2013-01-25 09:46:00,51.3,50.9,30.04,ENE,60,0.0,2.0,99,0.00,,,0.00,meteohub,2013-01-25 17:46:00,
2013-01-25 09:51:00,51.4,51.1,30.04,ENE,61,0.0,0.0,99,0.00,,,0.00,meteohub,2013-01-25 17:51:00,
2013-01-25 09:56:00,51.6,51.3,30.04,ENE,61,0.0,0.0,99,0.00,,,0.00,meteohub,2013-01-25 17:56:00,
2013-01-25 10:01:00,52.2,51.8,30.04,ENE,60,0.0,0.0,99,0.00,,,0.00,meteohub,2013-01-25 18:01:00,
2013-01-25 10:06:00,52.5,52.2,30.04,ENE,61,0.0,0.0,99,0.00,,,0.00,meteohub,2013-01-25 18:06:00,
2013-01-25 10:11:00,52.9,52.5,30.04,ENE,60,0.0,0.0,99,0.00,,,0.00,meteohub,2013-01-25 18:11:00,
2013-01-25 10:16:00,53.1,52.7,30.04,ENE,60,0.0,0.0,99,0.00,,,0.00,meteohub,2013-01-25 18:16:00,
2013-01-25 10:21:00,53.4,53.1,30.04,ENE,61,0.0,0.0,99,0.00,,,0.00,meteohub,2013-01-25 18:21:00,
2013-01-25 10:26:00,54.0,53.6,30.04,ENE,61,0.0,1.0,99,0.00,,,0.00,meteohub,2013-01-25 18:26:00,
2013-01-25 10:32:00,54.5,54.1,30.04,ENE,61,0.0,2.0,99,0.00,,,0.00,meteohub,2013-01-25 18:32:00,
2013-01-25 10:37:00,54.9,54.5,30.04,ENE,61,0.0,2.0,99,0.00,,,0.00,meteohub,2013-01-25 18:37:00,
2013-01-25 10:42:00,55.2,54.9,30.04,ENE,61,0.0,2.0,99,0.00,,,0.00,meteohub,2013-01-25 18:42:00,
2013-01-25 10:47:00,55.4,55.0,30.04,ENE,61,0.0,1.0,99,0.00,,,0.00,meteohub,2013-01-25 18:47:00,
2013-01-25 10:52:00,55.8,55.4,30.04,ENE,61,3.0,3.0,99,0.00,,,0.00,meteohub,2013-01-25 18:52:00,
2013-01-25 10:57:00,55.8,55.2,30.04,ENE,60,1.0,3.0,98,0.00,,,0.00,meteohub,2013-01-25 18:57:00,
2013-01-25 11:02:00,55.9,54.0,30.04,ENE,60,0.0,3.0,93,0.00,,,0.00,meteohub,2013-01-25 19:02:00,
2013-01-25 11:07:00,56.1,53.8,30.04,ENE,61,0.0,3.0,92,0.00,,,0.00,meteohub,2013-01-25 19:07:00,
2013-01-25 11:12:00,56.3,54.3,30.03,ENE,61,0.0,3.0,93,0.00,,,0.00,meteohub,2013-01-25 19:12:00,
2013-01-25 11:17:00,56.7,54.3,30.03,ENE,61,0.0,2.0,92,0.00,,,0.00,meteohub,2013-01-25 19:17:00,
2013-01-25 11:22:00,56.7,54.3,30.03,ENE,61,0.0,1.0,92,0.00,,,0.00,meteohub,2013-01-25 19:22:00,
2013-01-25 11:27:00,57.0,54.7,30.02,ENE,60,3.0,3.0,92,0.00,,,0.00,meteohub,2013-01-25 19:27:00,
2013-01-25 11:32:00,57.6,55.0,30.02,ENE,61,0.0,4.0,91,0.00,,,0.00,meteohub,2013-01-25 19:32:00,
2013-01-25 11:37:00,57.9,55.2,30.02,ENE,61,0.0,4.0,91,0.00,,,0.00,meteohub,2013-01-25 19:37:00,
2013-01-25 11:42:00,58.5,55.6,30.01,ENE,60,0.0,4.0,90,0.00,,,0.00,meteohub,2013-01-25 19:42:00,
2013-01-25 11:47:00,59.0,56.1,30.01,ENE,60,0.0,3.0,90,0.00,,,0.00,meteohub,2013-01-25 19:47:00,
2013-01-25 11:52:00,59.0,55.8,30.01,ENE,61,0.0,3.0,89,0.00,,,0.00,meteohub,2013-01-25 19:52:00,
2013-01-25 11:57:00,59.2,55.6,30.00,ENE,60,0.0,1.0,88,0.00,,,0.00,meteohub,2013-01-25 19:57:00,
2013-01-25 12:02:00,59.4,55.8,30.00,ENE,60,0.0,1.0,88,0.00,,,0.00,meteohub,2013-01-25 20:02:00,
2013-01-25 12:07:00,59.5,55.9,30.00,ENE,60,0.0,1.0,88,0.00,,,0.00,meteohub,2013-01-25 20:07:00,
2013-01-25 12:12:00,60.1,56.1,29.99,ENE,61,0.0,3.0,87,0.00,,,0.00,meteohub,2013-01-25 20:12:00,
2013-01-25 12:17:00,60.4,56.3,29.99,ENE,61,0.0,3.0,86,0.00,,,0.00,meteohub,2013-01-25 20:17:00,
2013-01-25 12:22:00,60.4,55.9,29.99,ENE,61,0.0,3.0,85,0.00,,,0.00,meteohub,2013-01-25 20:22:00,
2013-01-25 12:27:00,60.6,55.8,29.99,ENE,60,0.0,4.0,84,0.00,,,0.00,meteohub,2013-01-25 20:27:00,
2013-01-25 12:32:00,60.6,56.1,29.99,ENE,60,0.0,4.0,85,0.00,,,0.00,meteohub,2013-01-25 20:32:00,
2013-01-25 12:37:00,60.6,55.8,29.99,ENE,61,0.0,4.0,84,0.00,,,0.00,meteohub,2013-01-25 20:37:00,
2013-01-25 12:42:00,60.4,56.3,29.98,ENE,60,0.0,2.0,86,0.00,,,0.00,meteohub,2013-01-25 20:42:00,
2013-01-25 12:47:00,60.4,55.9,29.98,ENE,60,0.0,2.0,85,0.00,,,0.00,meteohub,2013-01-25 20:47:00,
2013-01-25 12:52:00,60.4,56.3,29.98,ENE,61,0.0,2.0,86,0.00,,,0.00,meteohub,2013-01-25 20:52:00,
2013-01-25 12:57:00,60.4,56.3,29.98,ENE,61,0.0,2.0,86,0.00,,,0.00,meteohub,2013-01-25 20:57:00,
2013-01-25 13:02:00,60.4,55.9,29.98,ENE,61,0.0,2.0,85,0.00,,,0.00,meteohub,2013-01-25 21:02:00,
2013-01-25 13:07:00,60.4,55.9,29.98,ENE,61,1.0,2.0,85,0.00,,,0.00,meteohub,2013-01-25 21:07:00,
2013-01-25 13:12:00,60.4,55.2,29.97,ENE,61,0.0,2.0,83,0.00,,,0.00,meteohub,2013-01-25 21:12:00,
2013-01-25 13:17:00,60.3,55.0,29.97,ENE,60,0.0,4.0,83,0.00,,,0.00,meteohub,2013-01-25 21:17:00,
2013-01-25 13:22:00,60.4,55.6,29.97,ENE,60,0.0,4.0,84,0.00,,,0.00,meteohub,2013-01-25 21:22:00,
2013-01-25 13:27:00,60.4,54.9,29.96,ENE,61,0.0,4.0,82,0.00,,,0.00,meteohub,2013-01-25 21:27:00,
2013-01-25 13:32:00,60.4,54.9,29.96,ENE,61,0.0,3.0,82,0.00,,,0.00,meteohub,2013-01-25 21:32:00,
2013-01-25 13:37:00,60.6,55.4,29.96,ENE,61,0.0,2.0,83,0.00,,,0.00,meteohub,2013-01-25 21:37:00,
2013-01-25 13:42:00,61.0,54.7,29.96,ENE,61,0.0,2.0,80,0.00,,,0.00,meteohub,2013-01-25 21:42:00,
2013-01-25 13:47:00,61.0,54.7,29.96,ENE,61,2.0,2.0,80,0.00,,,0.00,meteohub,2013-01-25 21:47:00,
2013-01-25 13:52:00,61.2,54.9,29.96,ENE,61,1.0,3.0,80,0.00,,,0.00,meteohub,2013-01-25 21:52:00,
2013-01-25 13:57:00,61.2,54.3,29.96,NE,54,0.0,5.0,78,0.00,,,0.00,meteohub,2013-01-25 21:57:00,
2013-01-25 14:02:00,61.0,54.5,29.96,NE,54,0.0,5.0,79,0.00,,,0.00,meteohub,2013-01-25 22:02:00,
2013-01-25 14:07:00,61.0,54.7,29.96,NE,54,0.0,5.0,80,0.00,,,0.00,meteohub,2013-01-25 22:07:00,
2013-01-25 14:12:00,60.8,54.7,29.96,North,350,0.0,5.0,80,0.00,,,0.00,meteohub,2013-01-25 22:12:00,
2013-01-25 14:17:00,60.8,54.3,29.96,NNW,348,1.0,7.0,79,0.00,,,0.00,meteohub,2013-01-25 22:17:00,
2013-01-25 14:22:00,60.8,54.7,29.96,NNW,348,1.0,7.0,80,0.00,,,0.00,meteohub,2013-01-25 22:22:00,
2013-01-25 14:27:00,60.6,54.7,29.96,NNW,348,0.0,4.0,81,0.00,,,0.00,meteohub,2013-01-25 22:27:00,
2013-01-25 14:32:00,60.6,54.7,29.96,NNW,348,0.0,4.0,81,0.00,,,0.00,meteohub,2013-01-25 22:32:00,
2013-01-25 14:37:00,60.8,55.6,29.96,NNW,347,1.0,4.0,83,0.00,,,0.00,meteohub,2013-01-25 22:37:00,
2013-01-25 14:42:00,60.8,54.7,29.95,NNW,336,0.0,3.0,80,0.00,,,0.00,meteohub,2013-01-25 22:42:00,
2013-01-25 14:47:00,60.8,54.3,29.95,NNW,331,0.0,4.0,79,0.00,,,0.00,meteohub,2013-01-25 22:47:00,
2013-01-25 14:52:00,60.8,55.2,29.95,NNW,331,0.0,4.0,82,0.00,,,0.00,meteohub,2013-01-25 22:52:00,
2013-01-25 14:57:00,60.6,54.7,29.96,NNW,331,0.0,4.0,81,0.00,,,0.00,meteohub,2013-01-25 22:57:00,
2013-01-25 15:02:00,60.6,54.5,29.96,NNW,331,1.0,3.0,80,0.00,,,0.00,meteohub,2013-01-25 23:02:00,
2013-01-25 15:07:00,60.8,55.2,29.96,NNW,331,0.0,3.0,82,0.00,,,0.00,meteohub,2013-01-25 23:07:00,
2013-01-25 15:12:00,60.6,54.5,29.95,NNW,331,0.0,3.0,80,0.00,,,0.00,meteohub,2013-01-25 23:12:00,
2013-01-25 15:17:00,60.6,54.7,29.95,NNW,331,0.0,3.0,81,0.00,,,0.00,meteohub,2013-01-25 23:17:00,
2013-01-25 15:22:00,60.4,54.9,29.95,NNW,331,0.0,2.0,82,0.00,,,0.00,meteohub,2013-01-25 23:22:00,
2013-01-25 15:27:00,60.3,54.7,29.94,NNW,331,0.0,1.0,82,0.00,,,0.00,meteohub,2013-01-25 23:27:00,
2013-01-25 15:32:00,60.1,54.9,29.94,NNW,331,0.0,1.0,83,0.00,,,0.00,meteohub,2013-01-25 23:32:00,
2013-01-25 15:37:00,59.7,54.5,29.94,NNW,331,1.0,1.0,83,0.00,,,0.00,meteohub,2013-01-25 23:37:00,
2013-01-25 15:42:00,59.7,54.5,29.94,NNW,327,1.0,2.0,83,0.00,,,0.00,meteohub,2013-01-25 23:42:00,
2013-01-25 15:47:00,59.7,54.9,29.94,NNW,327,0.0,3.0,84,0.00,,,0.00,meteohub,2013-01-25 23:47:00,
2013-01-25 15:52:00,59.5,55.0,29.94,NNW,327,0.0,3.0,85,0.00,,,0.00,meteohub,2013-01-25 23:52:00,
2013-01-25 15:57:00,59.4,54.9,29.93,NNW,327,0.0,3.0,85,0.00,,,0.00,meteohub,2013-01-25 23:57:00,
2013-01-25 16:02:00,59.0,54.9,29.93,NNW,327,0.0,1.0,86,0.00,,,0.00,meteohub,2013-01-26 00:02:00,
2013-01-25 16:07:00,58.6,54.9,29.93,NNW,327,0.0,1.0,87,0.00,,,0.00,meteohub,2013-01-26 00:07:00,
2013-01-25 16:12:00,58.5,54.7,29.92,NNW,327,0.0,1.0,87,0.00,,,0.00,meteohub,2013-01-26 00:12:00,
2013-01-25 16:17:00,58.1,54.3,29.92,NNW,327,0.0,1.0,87,0.00,,,0.00,meteohub,2013-01-26 00:17:00,
2013-01-25 16:22:00,57.9,54.3,29.92,NNW,327,0.0,0.0,88,0.00,,,0.00,meteohub,2013-01-26 00:22:00,
2013-01-25 16:27:00,57.7,54.1,29.92,NNW,327,0.0,0.0,88,0.00,,,0.00,meteohub,2013-01-26 00:27:00,
2013-01-25 16:32:00,57.4,54.1,29.92,NNW,327,0.0,0.0,89,0.00,,,0.00,meteohub,2013-01-26 00:32:00,
2013-01-25 16:37:00,57.4,54.1,29.92,NNW,327,0.0,0.0,89,0.00,,,0.00,meteohub,2013-01-26 00:37:00,
2013-01-25 16:42:00,57.0,54.1,29.91,NNW,327,0.0,0.0,90,0.00,,,0.00,meteohub,2013-01-26 00:42:00,
2013-01-25 16:47:00,56.8,54.0,29.91,NNW,327,0.0,0.0,90,0.00,,,0.00,meteohub,2013-01-26 00:47:00,
2013-01-25 16:52:00,56.8,54.0,29.91,NNW,327,0.0,0.0,90,0.00,,,0.00,meteohub,2013-01-26 00:52:00,
2013-01-25 16:57:00,56.7,54.1,29.91,NNW,327,0.0,0.0,91,0.00,,,0.00,meteohub,2013-01-26 00:57:00,
2013-01-25 17:02:00,56.5,54.0,29.91,NNW,327,0.0,0.0,91,0.00,,,0.00,meteohub,2013-01-26 01:02:00,
2013-01-25 17:07:00,56.5,54.0,29.91,NNW,327,0.0,0.0,91,0.00,,,0.00,meteohub,2013-01-26 01:07:00,
2013-01-25 17:12:00,56.3,54.0,29.92,NNW,327,0.0,0.0,92,0.00,,,0.00,meteohub,2013-01-26 01:12:00,
2013-01-25 17:17:00,56.1,53.8,29.92,NNW,327,0.0,0.0,92,0.00,,,0.00,meteohub,2013-01-26 01:17:00,
2013-01-25 17:22:00,55.9,53.6,29.92,NNW,327,0.0,0.0,92,0.00,,,0.00,meteohub,2013-01-26 01:22:00,
2013-01-25 17:27:00,55.8,53.4,29.91,NNW,327,0.0,0.0,92,0.00,,,0.00,meteohub,2013-01-26 01:27:00,
2013-01-25 17:32:00,55.8,53.4,29.91,NNW,327,0.0,0.0,92,0.00,,,0.00,meteohub,2013-01-26 01:32:00,
2013-01-25 17:37:00,55.6,53.2,29.91,NNW,327,0.0,0.0,92,0.00,,,0.00,meteohub,2013-01-26 01:37:00,
2013-01-25 17:42:00,55.2,53.2,29.91,NNW,327,0.0,0.0,93,0.00,,,0.00,meteohub,2013-01-26 01:42:00,
2013-01-25 17:47:00,55.2,53.2,29.91,NNW,327,0.0,0.0,93,0.00,,,0.00,meteohub,2013-01-26 01:47:00,
2013-01-25 17:52:00,55.0,53.1,29.91,NNW,327,0.0,0.0,93,0.00,,,0.00,meteohub,2013-01-26 01:52:00,
2013-01-25 17:57:00,54.9,52.9,29.91,NNW,327,0.0,0.0,93,0.00,,,0.00,meteohub,2013-01-26 01:57:00,
2013-01-25 18:02:00,54.9,53.2,29.91,NNW,327,0.0,0.0,94,0.00,,,0.00,meteohub,2013-01-26 02:02:00,
2013-01-25 18:07:00,54.7,53.1,29.91,NNW,327,0.0,0.0,94,0.00,,,0.00,meteohub,2013-01-26 02:07:00,
2013-01-25 18:12:00,54.3,52.7,29.92,NNW,327,0.0,0.0,94,0.00,,,0.00,meteohub,2013-01-26 02:12:00,
2013-01-25 18:17:00,54.3,52.7,29.92,NNW,327,0.0,0.0,94,0.00,,,0.00,meteohub,2013-01-26 02:17:00,
2013-01-25 18:22:00,54.1,52.5,29.92,NNW,327,0.0,0.0,94,0.00,,,0.00,meteohub,2013-01-26 02:22:00,
2013-01-25 18:27:00,54.0,52.5,29.93,NNW,327,0.0,0.0,95,0.00,,,0.00,meteohub,2013-01-26 02:27:00,
2013-01-25 18:32:00,54.0,52.5,29.93,NNW,327,0.0,0.0,95,0.00,,,0.00,meteohub,2013-01-26 02:32:00,
2013-01-25 18:37:00,54.0,52.5,29.93,NNW,327,0.0,0.0,95,0.00,,,0.00,meteohub,2013-01-26 02:37:00,
2013-01-25 18:42:00,53.8,52.3,29.93,NNW,327,0.0,0.0,95,0.00,,,0.00,meteohub,2013-01-26 02:42:00,
2013-01-25 18:47:00,53.8,52.3,29.93,NNW,327,0.0,0.0,95,0.00,,,0.00,meteohub,2013-01-26 02:47:00,
2013-01-25 18:52:00,53.6,52.2,29.93,NNW,327,0.0,0.0,95,0.00,,,0.00,meteohub,2013-01-26 02:52:00,
2013-01-25 18:57:00,53.4,52.0,29.93,NNW,327,0.0,0.0,95,0.00,,,0.00,meteohub,2013-01-26 02:57:00,
2013-01-25 19:02:00,53.4,52.3,29.93,NNW,327,0.0,0.0,96,0.00,,,0.00,meteohub,2013-01-26 03:02:00,
2013-01-25 19:07:00,53.2,51.8,29.93,NNW,327,0.0,0.0,95,0.00,,,0.00,meteohub,2013-01-26 03:07:00,
2013-01-25 19:12:00,53.2,52.2,29.94,NNW,327,0.0,0.0,96,0.00,,,0.00,meteohub,2013-01-26 03:12:00,
2013-01-25 19:17:00,53.1,52.0,29.94,NNW,327,0.0,0.0,96,0.00,,,0.00,meteohub,2013-01-26 03:17:00,
2013-01-25 19:22:00,53.1,52.0,29.94,NNW,327,0.0,0.0,96,0.00,,,0.00,meteohub,2013-01-26 03:22:00,
2013-01-25 19:27:00,53.1,52.0,29.93,NNW,327,0.0,0.0,96,0.00,,,0.00,meteohub,2013-01-26 03:27:00,
2013-01-25 19:32:00,52.9,51.8,29.93,NNW,327,0.0,0.0,96,0.00,,,0.00,meteohub,2013-01-26 03:32:00,
2013-01-25 19:37:00,52.7,51.6,29.93,NNW,327,0.0,0.0,96,0.00,,,0.00,meteohub,2013-01-26 03:37:00,
2013-01-25 19:42:00,52.7,51.6,29.93,NNW,327,0.0,0.0,96,0.00,,,0.00,meteohub,2013-01-26 03:42:00,
2013-01-25 19:47:00,52.5,51.4,29.93,NNW,327,0.0,0.0,96,0.00,,,0.00,meteohub,2013-01-26 03:47:00,
2013-01-25 19:52:00,52.3,51.3,29.93,NNW,327,0.0,0.0,96,0.00,,,0.00,meteohub,2013-01-26 03:52:00,
2013-01-25 19:57:00,52.3,51.3,29.93,NNW,327,0.0,0.0,96,0.00,,,0.00,meteohub,2013-01-26 03:57:00,
2013-01-25 20:02:00,52.2,51.1,29.93,NNW,327,0.0,0.0,96,0.00,,,0.00,meteohub,2013-01-26 04:02:00,
2013-01-25 20:07:00,52.2,51.1,29.93,NNW,327,0.0,0.0,96,0.00,,,0.00,meteohub,2013-01-26 04:07:00,
2013-01-25 20:12:00,52.2,51.1,29.93,NNW,327,0.0,0.0,96,0.00,,,0.00,meteohub,2013-01-26 04:12:00,
2013-01-25 20:17:00,52.0,51.1,29.93,NNW,327,0.0,0.0,97,0.00,,,0.00,meteohub,2013-01-26 04:17:00,
2013-01-25 20:22:00,52.0,51.1,29.93,NNW,327,0.0,0.0,97,0.00,,,0.00,meteohub,2013-01-26 04:22:00,
2013-01-25 20:27:00,52.0,51.1,29.93,NNW,327,0.0,0.0,97,0.00,,,0.00,meteohub,2013-01-26 04:27:00,
2013-01-25 20:32:00,51.6,50.5,29.93,NNW,327,0.0,0.0,96,0.00,,,0.00,meteohub,2013-01-26 04:32:00,
2013-01-25 20:37:00,51.6,50.7,29.93,NNW,327,0.0,0.0,97,0.00,,,0.00,meteohub,2013-01-26 04:37:00,
2013-01-25 20:42:00,51.6,50.7,29.93,NNW,327,0.0,0.0,97,0.00,,,0.00,meteohub,2013-01-26 04:42:00,
2013-01-25 20:47:00,51.4,50.5,29.93,NNW,327,0.0,0.0,97,0.00,,,0.00,meteohub,2013-01-26 04:47:00,
2013-01-25 20:52:00,51.4,50.5,29.93,NNW,327,0.0,0.0,97,0.00,,,0.00,meteohub,2013-01-26 04:52:00,
2013-01-25 20:57:00,51.4,50.5,29.92,NNW,327,0.0,0.0,97,0.00,,,0.00,meteohub,2013-01-26 04:57:00,
2013-01-25 21:00:00,51.3,50.4,29.92,NNW,327,0.0,0.0,97,0.00,,,0.00,meteohub,2013-01-26 05:00:00,
2013-01-25 21:02:00,51.3,50.4,29.92,NNW,327,0.0,0.0,97,0.00,,,0.00,meteohub,2013-01-26 05:02:00,
2013-01-25 21:07:00,51.3,50.4,29.92,NNW,327,0.0,0.0,97,0.00,,,0.00,meteohub,2013-01-26 05:07:00,
2013-01-25 21:12:00,51.3,50.4,29.93,NNW,327,0.0,0.0,97,0.00,,,0.00,meteohub,2013-01-26 05:12:00,
2013-01-25 21:17:00,51.3,50.4,29.93,NNW,327,0.0,0.0,97,0.00,,,0.00,meteohub,2013-01-26 05:17:00,
2013-01-25 21:22:00,51.3,50.4,29.93,NNW,327,0.0,0.0,97,0.00,,,0.00,meteohub,2013-01-26 05:22:00,
2013-01-25 21:27:00,51.3,50.4,29.92,NNW,327,0.0,0.0,97,0.00,,,0.00,meteohub,2013-01-26 05:27:00,
2013-01-25 21:32:00,51.3,50.4,29.92,NNW,327,0.0,0.0,97,0.00,,,0.00,meteohub,2013-01-26 05:32:00,
2013-01-25 21:37:00,51.3,50.4,29.92,NNW,327,0.0,0.0,97,0.00,,,0.00,meteohub,2013-01-26 05:37:00,
2013-01-25 21:42:00,51.3,50.4,29.92,NNW,327,0.0,0.0,97,0.00,,,0.00,meteohub,2013-01-26 05:42:00,
2013-01-25 21:47:00,51.3,50.4,29.92,NNW,327,0.0,0.0,97,0.00,,,0.00,meteohub,2013-01-26 05:47:00,
2013-01-25 21:52:00,51.3,50.4,29.92,NNW,327,0.0,0.0,97,0.00,,,0.00,meteohub,2013-01-26 05:52:00,
2013-01-25 21:57:00,51.3,50.4,29.92,NNW,327,0.0,0.0,97,0.00,,,0.00,meteohub,2013-01-26 05:57:00,
2013-01-25 22:02:00,51.1,50.2,29.92,NNW,327,0.0,0.0,97,0.00,,,0.00,meteohub,2013-01-26 06:02:00,
2013-01-25 22:07:00,51.1,50.2,29.92,NNW,327,0.0,0.0,97,0.00,,,0.00,meteohub,2013-01-26 06:07:00,
2013-01-25 22:12:00,51.1,50.2,29.93,NNW,327,0.0,0.0,97,0.00,,,0.00,meteohub,2013-01-26 06:12:00,
2013-01-25 22:17:00,50.9,50.0,29.93,NNW,327,0.0,0.0,97,0.00,,,0.00,meteohub,2013-01-26 06:17:00,
2013-01-25 22:22:00,50.7,49.8,29.93,NNW,327,0.0,1.0,97,0.00,,,0.00,meteohub,2013-01-26 06:22:00,
2013-01-25 22:27:00,50.7,49.8,29.92,NNW,327,0.0,1.0,97,0.00,,,0.00,meteohub,2013-01-26 06:27:00,
2013-01-25 22:32:00,50.5,49.6,29.92,NNW,327,0.0,1.0,97,0.00,,,0.00,meteohub,2013-01-26 06:32:00,
2013-01-25 22:37:00,50.4,49.5,29.92,NNW,327,0.0,0.0,97,0.00,,,0.00,meteohub,2013-01-26 06:37:00,
2013-01-25 22:42:00,50.4,49.5,29.92,NNW,327,0.0,0.0,97,0.00,,,0.00,meteohub,2013-01-26 06:42:00,
2013-01-25 22:47:00,50.2,49.3,29.92,NNW,327,0.0,0.0,97,0.00,,,0.00,meteohub,2013-01-26 06:47:00,
2013-01-25 22:52:00,49.8,48.9,29.92,NNW,327,0.0,0.0,97,0.00,,,0.00,meteohub,2013-01-26 06:52:00,
2013-01-25 22:57:00,49.6,48.7,29.92,NNW,327,0.0,0.0,97,0.00,,,0.00,meteohub,2013-01-26 06:57:00,
2013-01-25 23:02:00,49.6,48.7,29.92,NNW,327,0.0,0.0,97,0.00,,,0.00,meteohub,2013-01-26 07:02:00,
2013-01-25 23:07:00,49.5,48.6,29.92,NNW,327,0.0,0.0,97,0.00,,,0.00,meteohub,2013-01-26 07:07:00,
2013-01-25 23:12:00,49.3,48.4,29.92,NNW,327,0.0,0.0,97,0.00,,,0.00,meteohub,2013-01-26 07:12:00,
2013-01-25 23:17:00,49.1,48.2,29.92,NNW,327,0.0,0.0,97,0.00,,,0.00,meteohub,2013-01-26 07:17:00,
2013-01-25 23:22:00,48.9,48.0,29.92,NNW,327,0.0,0.0,97,0.00,,,0.00,meteohub,2013-01-26 07:22:00,
2013-01-25 23:27:00,48.7,47.8,29.92,NNW,327,0.0,0.0,97,0.00,,,0.00,meteohub,2013-01-26 07:27:00,
2013-01-25 23:32:00,48.6,47.7,29.92,NNW,327,0.0,0.0,97,0.00,,,0.00,meteohub,2013-01-26 07:32:00,
2013-01-25 23:37:00,48.6,47.7,29.92,NNW,327,0.0,0.0,97,0.00,,,0.00,meteohub,2013-01-26 07:37:00,
2013-01-25 23:42:00,48.4,47.5,29.92,NNW,327,0.0,0.0,97,0.00,,,0.00,meteohub,2013-01-26 07:42:00,
2013-01-25 23:47:00,48.4,47.5,29.92,NNW,327,0.0,0.0,97,0.00,,,0.00,meteohub,2013-01-26 07:47:00,
2013-01-25 23:52:00,48.0,47.1,29.92,NNW,327,0.0,0.0,97,0.00,,,0.00,meteohub,2013-01-26 07:52:00,
2013-01-25 23:57:00,48.0,47.1,29.92,NNW,327,0.0,0.0,97,0.00,,,0.00,meteohub,2013-01-26 07:57:00,